createdAt,value
2022-09-05T00:02:52.379Z,19.35
2022-09-05T00:08:01.422Z,19.39
2022-09-05T00:13:07.467Z,19.33
2022-09-05T00:22:59.121Z,19.31
2022-09-05T00:24:37.403Z,19.41
2022-09-05T00:31:05.530Z,19.36
2022-09-05T00:35:21.648Z,19.44
2022-09-05T00:40:41.347Z,19.60
2022-09-05T00:45:50.867Z,19.67
2022-09-05T00:51:11.255Z,19.66
2022-09-05T00:56:22.160Z,19.69
2022-09-05T01:01:36.078Z,19.61
2022-09-05T01:06:52.925Z,19.48
2022-09-05T01:12:06.269Z,19.34
2022-09-05T01:17:27.041Z,19.27
2022-09-05T01:22:50.599Z,19.30
2022-09-05T01:29:15.524Z,19.18
2022-09-05T01:33:47.202Z,18.85
2022-09-05T01:40:10.460Z,18.79
2022-09-05T01:45:08.275Z,18.81
2022-09-05T01:50:24.165Z,18.75
2022-09-05T01:55:31.162Z,18.53
2022-09-05T02:00:38.822Z,18.33
2022-09-05T02:06:31.845Z,18.24
2022-09-05T02:11:56.080Z,18.16
2022-09-05T02:17:50.598Z,18.50
2022-09-05T02:23:27.364Z,18.50
2022-09-05T02:28:50.226Z,18.27
2022-09-05T02:34:07.301Z,18.26
2022-09-05T02:45:02.023Z,18.33
2022-09-05T02:45:12.357Z,18.33
2022-09-05T02:54:07.895Z,18.14
2022-09-05T02:57:42.878Z,17.90
2022-09-05T03:01:44.707Z,17.92
2022-09-05T03:07:07.636Z,18.10
2022-09-05T03:12:31.089Z,18.23
2022-09-05T03:17:38.401Z,18.42
2022-09-05T03:23:01.736Z,18.38
2022-09-05T03:28:27.742Z,18.44
2022-09-05T03:34:00.100Z,18.41
2022-09-05T03:39:15.125Z,18.15
2022-09-05T03:44:38.452Z,17.95
2022-09-05T03:54:59.761Z,17.80
2022-09-05T03:57:14.835Z,17.76
2022-09-05T04:02:59.987Z,17.85
2022-09-05T04:08:18.373Z,17.82
2022-09-05T04:12:32.503Z,17.65
2022-09-05T04:17:42.560Z,17.45
2022-09-05T04:23:06.105Z,17.35
2022-09-05T04:28:13.371Z,17.25
2022-09-05T04:33:37.010Z,17.21
2022-09-05T04:38:41.977Z,17.21
2022-09-05T04:43:55.321Z,17.33
2022-09-05T04:49:02.077Z,17.35
2022-09-05T04:54:13.080Z,17.44
2022-09-05T05:05:52.184Z,17.43
2022-09-05T05:06:16.462Z,17.42
2022-09-05T05:12:19.799Z,17.50
2022-09-05T05:18:14.226Z,17.47
2022-09-05T05:21:36.060Z,17.43
2022-09-05T05:26:47.692Z,17.60
2022-09-05T05:31:56.419Z,17.97
2022-09-05T05:37:10.829Z,18.14
2022-09-05T05:42:20.301Z,18.10
2022-09-05T05:47:31.816Z,18.78
2022-09-05T05:53:11.798Z,18.91
2022-09-05T05:58:58.751Z,19.48
2022-09-05T06:04:18.516Z,19.69
2022-09-05T06:14:49.817Z,20.05
2022-09-05T06:15:28.664Z,20.76
2022-09-05T06:22:11.350Z,21.29
2022-09-05T06:26:57.947Z,21.32
2022-09-05T06:32:26.238Z,21.18
2022-09-05T06:37:49.013Z,21.30
2022-09-05T06:43:31.465Z,21.59
2022-09-05T06:49:29.736Z,22.07
2022-09-05T06:54:26.152Z,22.62
2022-09-05T07:00:01.540Z,22.88
2022-09-05T07:05:39.469Z,22.58
2022-09-05T07:10:56.079Z,23.05
2022-09-05T07:16:38.070Z,24.09
2022-09-05T07:21:54.785Z,24.59
2022-09-05T07:27:00.167Z,26.03
2022-09-05T07:32:02.826Z,26.48
2022-09-05T07:37:16.427Z,26.42
2022-09-05T07:42:32.045Z,27.03
2022-09-05T07:47:38.182Z,27.45
2022-09-05T07:56:51.595Z,25.93
2022-09-05T07:58:07.809Z,26.87
2022-09-05T08:03:14.840Z,26.42
2022-09-05T08:08:22.850Z,27.79
2022-09-05T08:14:43.752Z,28.42
2022-09-05T08:20:07.917Z,27.72
2022-09-05T08:25:18.243Z,27.73
2022-09-05T08:30:26.475Z,27.55
2022-09-05T08:35:53.282Z,29.04
2022-09-05T08:41:09.195Z,27.43
2022-09-05T08:46:47.329Z,28.78
2022-09-05T08:51:55.808Z,29.14
2022-09-05T08:57:00.765Z,30.70
2022-09-05T09:02:45.307Z,31.24
2022-09-05T09:07:50.550Z,30.35
2022-09-05T09:13:08.835Z,30.28
2022-09-05T09:18:20.775Z,31.14
2022-09-05T09:23:37.785Z,32.25
2022-09-05T09:28:47.636Z,32.80
2022-09-05T09:33:55.280Z,32.79
2022-09-05T09:39:38.574Z,31.91
2022-09-05T09:44:35.084Z,32.96
2022-09-05T09:50:19.111Z,33.71
2022-09-05T09:55:44.219Z,32.33
2022-09-05T10:01:21.568Z,32.50
2022-09-05T10:10:43.851Z,33.64
2022-09-05T10:12:15.338Z,34.13
2022-09-05T10:17:32.644Z,33.93
2022-09-05T10:22:43.133Z,33.78
2022-09-05T10:28:07.180Z,34.68
2022-09-05T10:35:14.235Z,33.63
2022-09-05T10:39:04.301Z,33.90
2022-09-05T10:44:07.346Z,34.62
2022-09-05T10:49:13.517Z,34.52
2022-09-05T10:54:21.026Z,33.51
2022-09-05T11:02:23.721Z,34.45
2022-09-05T11:05:25.525Z,34.11
2022-09-05T11:10:41.042Z,33.32
2022-09-05T11:16:04.323Z,34.16
2022-09-05T11:21:15.967Z,35.33
2022-09-05T11:26:47.694Z,35.78
2022-09-05T11:36:04.001Z,35.47
2022-09-05T11:39:55.851Z,36.35
2022-09-05T11:43:20.426Z,36.19
2022-09-05T11:48:44.563Z,35.78
2022-09-05T11:54:04.179Z,34.32
2022-09-05T11:59:38.104Z,32.67
2022-09-05T12:05:50.491Z,34.34
2022-09-05T12:10:47.891Z,34.94
2022-09-05T12:16:07.510Z,32.40
2022-09-05T12:21:31.697Z,32.96
2022-09-05T12:27:39.246Z,32.99
2022-09-05T12:33:47.968Z,35.00
2022-09-05T12:40:38.519Z,34.23
2022-09-05T12:43:53.000Z,34.02
2022-09-05T12:49:11.016Z,34.16
2022-09-05T12:54:33.359Z,33.89
2022-09-05T13:02:55.313Z,33.01
2022-09-05T13:05:10.444Z,34.12
2022-09-05T13:11:02.418Z,33.62
2022-09-05T13:15:39.017Z,35.52
2022-09-05T13:20:47.869Z,33.62
2022-09-05T13:26:44.224Z,34.10
2022-09-05T13:38:03.551Z,34.40
2022-09-05T13:38:04.488Z,33.51
2022-09-05T13:42:45.143Z,34.66
2022-09-05T13:49:23.814Z,34.66
2022-09-05T13:54:22.474Z,35.49
2022-09-05T13:59:24.788Z,35.78
2022-09-05T14:10:22.949Z,34.73
2022-09-05T14:15:36.669Z,34.19
2022-09-05T14:20:49.548Z,34.70
2022-09-05T14:26:00.182Z,35.03
2022-09-05T14:35:10.888Z,36.03
2022-09-05T14:38:01.386Z,36.51
2022-09-05T14:42:31.139Z,36.33
2022-09-05T14:48:02.554Z,33.88
2022-09-05T15:02:44.503Z,34.51
2022-09-05T15:11:25.642Z,33.38
2022-09-05T15:14:38.372Z,33.01
2022-09-05T15:20:05.607Z,33.84
2022-09-05T15:25:17.155Z,34.24
2022-09-05T15:30:35.150Z,33.15
2022-09-05T15:35:42.084Z,32.66
2022-09-05T15:40:43.851Z,32.50
2022-09-05T15:45:45.458Z,32.08
2022-09-05T15:50:49.944Z,31.75
2022-09-05T15:56:00.050Z,32.02
2022-09-05T16:01:13.510Z,31.68
2022-09-05T16:10:36.897Z,31.53
2022-09-05T16:12:13.992Z,31.54
2022-09-05T16:23:17.687Z,31.37
2022-09-05T16:23:31.786Z,31.31
2022-09-05T16:28:29.804Z,31.19
2022-09-05T16:33:33.675Z,31.08
2022-09-05T16:38:49.109Z,30.92
2022-09-05T16:43:57.227Z,30.94
2022-09-05T16:49:13.363Z,30.90
2022-09-05T16:54:25.420Z,30.54
2022-09-05T16:59:31.119Z,30.49
2022-09-05T17:05:04.128Z,30.43
2022-09-05T17:10:10.658Z,30.34
2022-09-05T17:15:20.585Z,30.14
2022-09-05T17:20:25.434Z,30.06
2022-09-05T17:29:25.247Z,29.92
2022-09-05T17:36:41.232Z,29.78
2022-09-05T17:42:35.007Z,29.60
2022-09-05T17:47:48.328Z,29.12
2022-09-05T17:53:25.748Z,28.75
2022-09-05T17:58:49.614Z,28.49
2022-09-05T18:03:51.985Z,27.86
2022-09-05T18:08:53.813Z,27.41
2022-09-05T18:14:00.426Z,26.98
2022-09-05T18:19:32.721Z,26.68
2022-09-05T18:24:47.952Z,26.69
2022-09-05T18:29:59.396Z,26.43
2022-09-05T18:35:10.532Z,26.51
2022-09-05T18:40:36.527Z,26.31
2022-09-05T18:45:52.987Z,26.19
2022-09-05T18:51:13.357Z,26.11
2022-09-05T18:56:27.620Z,25.76
2022-09-05T19:01:39.469Z,25.68
2022-09-05T19:06:46.789Z,25.51
2022-09-05T19:11:56.314Z,25.92
2022-09-05T19:17:27.393Z,26.37
2022-09-05T19:23:10.010Z,26.34
2022-09-05T19:32:47.145Z,26.17
2022-09-05T19:36:50.207Z,26.00
2022-09-05T19:40:06.394Z,25.97
2022-09-05T19:47:42.804Z,25.78
2022-09-05T19:50:01.408Z,25.12
2022-09-05T19:55:10.966Z,24.71
2022-09-05T20:00:20.557Z,24.63
2022-09-05T20:05:23.768Z,24.56
2022-09-05T20:10:32.294Z,24.54
2022-09-05T20:15:36.329Z,24.37
2022-09-05T20:20:38.366Z,24.34
2022-09-05T20:25:47.833Z,24.34
2022-09-05T20:30:55.769Z,24.17
2022-09-05T20:43:08.394Z,23.85
2022-09-05T20:43:15.053Z,23.57
2022-09-05T20:52:23.113Z,23.78
2022-09-05T20:54:24.999Z,23.94
2022-09-05T20:57:45.074Z,24.17
2022-09-05T21:02:55.011Z,24.09
2022-09-05T21:08:15.697Z,23.71
2022-09-05T21:13:24.983Z,23.43
2022-09-05T21:18:33.330Z,23.21
2022-09-05T21:23:37.888Z,23.10
2022-09-05T21:28:44.300Z,23.09
2022-09-05T21:33:47.952Z,23.16
2022-09-05T21:38:59.152Z,23.15
2022-09-05T21:47:50.090Z,22.96
2022-09-05T21:49:23.015Z,22.49
2022-09-05T21:59:14.753Z,22.42
2022-09-05T21:59:47.842Z,22.32
2022-09-05T22:04:49.862Z,22.43
2022-09-05T22:09:51.463Z,22.45
2022-09-05T22:14:53.043Z,22.48
2022-09-05T22:19:54.964Z,22.39
2022-09-05T22:25:02.362Z,22.33
2022-09-05T22:30:04.902Z,22.35
2022-09-05T22:35:26.921Z,22.41
2022-09-05T22:40:30.729Z,22.55
2022-09-05T22:45:34.221Z,22.52
2022-09-05T22:50:37.059Z,22.52
2022-09-05T22:55:41.623Z,22.62
2022-09-05T23:00:43.258Z,22.49
2022-09-05T23:05:45.075Z,22.50
2022-09-05T23:10:46.676Z,22.59
2022-09-05T23:15:48.418Z,22.50
2022-09-05T23:20:50.012Z,22.37
2022-09-05T23:25:51.546Z,22.34
2022-09-05T23:30:53.197Z,22.27
2022-09-05T23:36:00.785Z,22.06
2022-09-05T23:41:08.659Z,21.98
2022-09-05T23:46:10.345Z,22.04
2022-09-05T23:51:13.380Z,22.01
2022-09-05T23:56:14.947Z,22.06
